sensor_id;sensor_type;location;lat;lon;timestamp;pressure;altitude;pressure_sealevel;temperature;humidity
21361;BME280;10839;43.206;23.550;2023-08-20T00:02:01;97377.75;;;23.06;77.45
21361;BME280;10839;43.206;23.550;2023-08-20T00:04:28;97388.25;;;23.19;76.86
21361;BME280;10839;43.206;23.550;2023-08-20T00:06:55;97382.22;;;23.22;76.48
21361;BME280;10839;43.206;23.550;2023-08-20T00:09:21;97377.81;;;23.26;76.34
21361;BME280;10839;43.206;23.550;2023-08-20T00:11:47;97398.16;;;23.25;76.68
21361;BME280;10839;43.206;23.550;2023-08-20T00:14:16;97383.56;;;23.19;76.52
21361;BME280;10839;43.206;23.550;2023-08-20T00:16:43;97393.25;;;23.32;76.11
21361;BME280;10839;43.206;23.550;2023-08-20T00:19:10;97389.63;;;23.26;76.35
21361;BME280;10839;43.206;23.550;2023-08-20T00:21:41;97392.72;;;23.35;75.99
21361;BME280;10839;43.206;23.550;2023-08-20T00:24:08;97384.47;;;23.30;76.18
21361;BME280;10839;43.206;23.550;2023-08-20T00:26:34;97386.09;;;23.31;75.84
21361;BME280;10839;43.206;23.550;2023-08-20T00:29:00;97376.81;;;23.42;75.21
21361;BME280;10839;43.206;23.550;2023-08-20T00:31:26;97386.97;;;23.41;75.10
21361;BME280;10839;43.206;23.550;2023-08-20T00:33:52;97381.75;;;23.45;75.15
21361;BME280;10839;43.206;23.550;2023-08-20T00:36:17;97391.09;;;23.39;75.27
21361;BME280;10839;43.206;23.550;2023-08-20T00:38:43;97381.66;;;23.20;76.24
21361;BME280;10839;43.206;23.550;2023-08-20T00:41:09;97388.78;;;23.21;76.30
21361;BME280;10839;43.206;23.550;2023-08-20T00:43:36;97390.44;;;23.17;76.62
21361;BME280;10839;43.206;23.550;2023-08-20T00:46:02;97384.91;;;23.07;77.14
21361;BME280;10839;43.206;23.550;2023-08-20T00:48:29;97387.66;;;23.12;77.22
21361;BME280;10839;43.206;23.550;2023-08-20T00:50:55;97380.53;;;23.16;76.76
21361;BME280;10839;43.206;23.550;2023-08-20T00:53:22;97378.88;;;23.15;76.69
21361;BME280;10839;43.206;23.550;2023-08-20T00:55:48;97376.72;;;23.22;76.32
21361;BME280;10839;43.206;23.550;2023-08-20T00:58:14;97382.81;;;23.29;76.04
21361;BME280;10839;43.206;23.550;2023-08-20T01:00:40;97374.78;;;23.17;76.37
21361;BME280;10839;43.206;23.550;2023-08-20T01:03:07;97381.16;;;23.28;76.21
21361;BME280;10839;43.206;23.550;2023-08-20T01:05:39;97377.78;;;23.16;76.50
21361;BME280;10839;43.206;23.550;2023-08-20T01:08:16;97381.94;;;23.23;76.22
21361;BME280;10839;43.206;23.550;2023-08-20T01:10:59;97392.06;;;23.18;76.48
21361;BME280;10839;43.206;23.550;2023-08-20T01:13:27;97385.03;;;23.37;75.33
21361;BME280;10839;43.206;23.550;2023-08-20T01:15:53;97392.63;;;23.15;76.38
21361;BME280;10839;43.206;23.550;2023-08-20T01:18:19;97394.50;;;23.09;77.67
21361;BME280;10839;43.206;23.550;2023-08-20T01:20:53;97382.56;;;22.78;79.14
21361;BME280;10839;43.206;23.550;2023-08-20T01:26:13;97377.09;;;22.84;79.00
21361;BME280;10839;43.206;23.550;2023-08-20T01:28:54;97376.06;;;22.95;78.19
21361;BME280;10839;43.206;23.550;2023-08-20T01:31:20;97376.63;;;23.02;77.55
21361;BME280;10839;43.206;23.550;2023-08-20T01:33:46;97369.53;;;23.11;76.90
21361;BME280;10839;43.206;23.550;2023-08-20T01:36:12;97376.09;;;23.05;77.48
21361;BME280;10839;43.206;23.550;2023-08-20T01:38:40;97374.13;;;22.90;78.31
21361;BME280;10839;43.206;23.550;2023-08-20T01:41:06;97367.00;;;22.99;78.10
21361;BME280;10839;43.206;23.550;2023-08-20T01:43:32;97360.97;;;22.92;78.22
21361;BME280;10839;43.206;23.550;2023-08-20T01:45:59;97360.34;;;22.80;79.28
21361;BME280;10839;43.206;23.550;2023-08-20T01:48:25;97359.25;;;22.86;78.47
21361;BME280;10839;43.206;23.550;2023-08-20T01:50:51;97355.19;;;22.89;78.09
21361;BME280;10839;43.206;23.550;2023-08-20T01:53:16;97350.28;;;22.96;77.92
21361;BME280;10839;43.206;23.550;2023-08-20T01:55:42;97360.19;;;23.07;77.03
21361;BME280;10839;43.206;23.550;2023-08-20T01:58:08;97352.56;;;23.24;75.84
21361;BME280;10839;43.206;23.550;2023-08-20T02:00:34;97356.94;;;23.20;76.08
21361;BME280;10839;43.206;23.550;2023-08-20T02:03:00;97352.06;;;23.27;75.57
21361;BME280;10839;43.206;23.550;2023-08-20T02:05:26;97345.94;;;23.20;75.58
21361;BME280;10839;43.206;23.550;2023-08-20T02:07:53;97359.06;;;23.08;76.60
21361;BME280;10839;43.206;23.550;2023-08-20T02:10:19;97355.75;;;22.96;77.41
21361;BME280;10839;43.206;23.550;2023-08-20T02:12:46;97351.31;;;22.90;77.82
21361;BME280;10839;43.206;23.550;2023-08-20T02:15:12;97347.44;;;22.75;78.51
21361;BME280;10839;43.206;23.550;2023-08-20T02:17:38;97349.63;;;22.78;78.64
21361;BME280;10839;43.206;23.550;2023-08-20T02:20:04;97358.09;;;22.67;79.46
21361;BME280;10839;43.206;23.550;2023-08-20T02:22:31;97356.72;;;22.69;79.39
21361;BME280;10839;43.206;23.550;2023-08-20T02:24:57;97357.56;;;22.70;79.40
21361;BME280;10839;43.206;23.550;2023-08-20T02:27:23;97358.31;;;22.60;79.83
21361;BME280;10839;43.206;23.550;2023-08-20T02:29:48;97366.09;;;22.78;78.96
21361;BME280;10839;43.206;23.550;2023-08-20T02:32:14;97371.00;;;22.71;79.40
21361;BME280;10839;43.206;23.550;2023-08-20T02:34:40;97366.03;;;22.68;79.34
21361;BME280;10839;43.206;23.550;2023-08-20T02:37:06;97375.94;;;22.74;79.62
21361;BME280;10839;43.206;23.550;2023-08-20T02:39:32;97369.34;;;22.70;79.59
21361;BME280;10839;43.206;23.550;2023-08-20T02:41:58;97372.56;;;22.62;80.06
21361;BME280;10839;43.206;23.550;2023-08-20T02:44:26;97367.09;;;22.62;79.87
21361;BME280;10839;43.206;23.550;2023-08-20T02:46:53;97373.69;;;22.61;80.39
21361;BME280;10839;43.206;23.550;2023-08-20T02:49:19;97380.28;;;22.60;80.20
21361;BME280;10839;43.206;23.550;2023-08-20T02:51:45;97379.06;;;22.51;80.67
21361;BME280;10839;43.206;23.550;2023-08-20T02:54:11;97375.28;;;22.57;80.41
21361;BME280;10839;43.206;23.550;2023-08-20T02:56:36;97387.31;;;22.51;80.29
21361;BME280;10839;43.206;23.550;2023-08-20T02:59:02;97372.81;;;22.56;80.00
21361;BME280;10839;43.206;23.550;2023-08-20T03:01:28;97385.22;;;22.63;79.67
21361;BME280;10839;43.206;23.550;2023-08-20T03:03:55;97368.16;;;22.56;79.70
21361;BME280;10839;43.206;23.550;2023-08-20T03:06:22;97362.88;;;22.50;80.05
21361;BME280;10839;43.206;23.550;2023-08-20T03:08:47;97374.78;;;22.60;79.39
21361;BME280;10839;43.206;23.550;2023-08-20T03:11:14;97369.31;;;22.60;79.31
21361;BME280;10839;43.206;23.550;2023-08-20T03:13:40;97368.06;;;22.46;79.88
21361;BME280;10839;43.206;23.550;2023-08-20T03:16:06;97384.53;;;22.46;80.37
21361;BME280;10839;43.206;23.550;2023-08-20T03:18:32;97369.22;;;22.50;79.79
21361;BME280;10839;43.206;23.550;2023-08-20T03:20:58;97387.41;;;22.61;79.21
21361;BME280;10839;43.206;23.550;2023-08-20T03:23:24;97373.59;;;22.51;79.22
21361;BME280;10839;43.206;23.550;2023-08-20T03:25:50;97376.66;;;22.55;79.05
21361;BME280;10839;43.206;23.550;2023-08-20T03:28:18;97381.91;;;22.61;78.61
21361;BME280;10839;43.206;23.550;2023-08-20T03:30:44;97373.19;;;22.69;77.94
21361;BME280;10839;43.206;23.550;2023-08-20T03:33:13;97375.31;;;22.62;78.11
21361;BME280;10839;43.206;23.550;2023-08-20T03:35:40;97364.84;;;22.54;78.60
21361;BME280;10839;43.206;23.550;2023-08-20T03:38:06;97376.34;;;22.51;78.75
21361;BME280;10839;43.206;23.550;2023-08-20T03:40:32;97362.59;;;22.46;78.79
21361;BME280;10839;43.206;23.550;2023-08-20T03:42:57;97376.88;;;22.48;79.27
21361;BME280;10839;43.206;23.550;2023-08-20T03:45:23;97370.25;;;22.44;78.96
21361;BME280;10839;43.206;23.550;2023-08-20T03:47:49;97373.66;;;22.56;78.35
21361;BME280;10839;43.206;23.550;2023-08-20T03:50:17;97371.47;;;22.58;77.97
21361;BME280;10839;43.206;23.550;2023-08-20T03:52:44;97373.94;;;22.60;77.22
21361;BME280;10839;43.206;23.550;2023-08-20T03:55:10;97375.41;;;22.77;76.82
21361;BME280;10839;43.206;23.550;2023-08-20T03:57:36;97372.63;;;22.72;76.70
21361;BME280;10839;43.206;23.550;2023-08-20T04:00:04;97363.25;;;22.58;77.24
21361;BME280;10839;43.206;23.550;2023-08-20T04:02:40;97369.88;;;22.67;76.95
21361;BME280;10839;43.206;23.550;2023-08-20T04:05:06;97377.78;;;22.54;77.75
21361;BME280;10839;43.206;23.550;2023-08-20T04:07:32;97371.06;;;22.87;76.04
21361;BME280;10839;43.206;23.550;2023-08-20T04:09:59;97375.56;;;23.08;74.99
21361;BME280;10839;43.206;23.550;2023-08-20T04:12:25;97387.63;;;23.02;75.42
21361;BME280;10839;43.206;23.550;2023-08-20T04:14:50;97385.97;;;23.01;75.15
21361;BME280;10839;43.206;23.550;2023-08-20T04:17:16;97393.28;;;22.80;75.80
21361;BME280;10839;43.206;23.550;2023-08-20T04:19:42;97380.94;;;22.83;75.75
21361;BME280;10839;43.206;23.550;2023-08-20T04:22:08;97385.09;;;22.90;75.24
21361;BME280;10839;43.206;23.550;2023-08-20T04:24:34;97382.47;;;23.15;74.14
21361;BME280;10839;43.206;23.550;2023-08-20T04:27:00;97384.84;;;22.97;74.34
21361;BME280;10839;43.206;23.550;2023-08-20T04:29:28;97384.88;;;23.02;74.42
21361;BME280;10839;43.206;23.550;2023-08-20T04:31:53;97381.72;;;22.78;75.08
21361;BME280;10839;43.206;23.550;2023-08-20T04:34:19;97388.91;;;22.89;74.46
21361;BME280;10839;43.206;23.550;2023-08-20T04:36:49;97383.94;;;23.43;72.48
21361;BME280;10839;43.206;23.550;2023-08-20T04:39:18;97380.91;;;23.34;72.21
21361;BME280;10839;43.206;23.550;2023-08-20T04:41:48;97390.03;;;23.55;71.86
21361;BME280;10839;43.206;23.550;2023-08-20T04:44:16;97384.50;;;23.45;71.28
21361;BME280;10839;43.206;23.550;2023-08-20T04:46:42;97394.94;;;23.48;71.41
21361;BME280;10839;43.206;23.550;2023-08-20T04:49:09;97408.09;;;23.41;71.82
21361;BME280;10839;43.206;23.550;2023-08-20T04:51:38;97404.88;;;23.59;71.30
21361;BME280;10839;43.206;23.550;2023-08-20T04:54:04;97402.09;;;23.44;71.68
21361;BME280;10839;43.206;23.550;2023-08-20T04:56:30;97410.06;;;23.45;72.06
21361;BME280;10839;43.206;23.550;2023-08-20T04:58:56;97414.41;;;23.31;72.66
21361;BME280;10839;43.206;23.550;2023-08-20T05:01:57;97397.69;;;23.48;72.20
21361;BME280;10839;43.206;23.550;2023-08-20T05:04:37;97403.81;;;23.75;70.97
21361;BME280;10839;43.206;23.550;2023-08-20T05:07:03;97412.59;;;23.67;71.49
21361;BME280;10839;43.206;23.550;2023-08-20T05:09:29;97410.88;;;23.46;72.48
21361;BME280;10839;43.206;23.550;2023-08-20T05:11:55;97410.41;;;23.84;71.19
21361;BME280;10839;43.206;23.550;2023-08-20T05:14:21;97421.94;;;23.81;71.18
21361;BME280;10839;43.206;23.550;2023-08-20T05:16:47;97421.91;;;23.61;71.86
21361;BME280;10839;43.206;23.550;2023-08-20T05:19:12;97425.81;;;23.75;71.73
21361;BME280;10839;43.206;23.550;2023-08-20T05:21:38;97423.63;;;23.87;71.13
21361;BME280;10839;43.206;23.550;2023-08-20T05:24:04;97431.34;;;23.95;70.75
21361;BME280;10839;43.206;23.550;2023-08-20T05:26:30;97434.66;;;23.97;70.40
21361;BME280;10839;43.206;23.550;2023-08-20T05:28:56;97441.56;;;24.25;69.63
21361;BME280;10839;43.206;23.550;2023-08-20T05:31:22;97435.50;;;24.33;69.78
21361;BME280;10839;43.206;23.550;2023-08-20T05:33:49;97438.53;;;24.51;68.64
21361;BME280;10839;43.206;23.550;2023-08-20T05:36:15;97440.69;;;24.94;67.13
21361;BME280;10839;43.206;23.550;2023-08-20T05:38:43;97452.25;;;25.01;67.20
21361;BME280;10839;43.206;23.550;2023-08-20T05:41:09;97452.47;;;25.25;66.19
21361;BME280;10839;43.206;23.550;2023-08-20T05:43:35;97447.44;;;25.96;63.59
21361;BME280;10839;43.206;23.550;2023-08-20T05:46:04;97449.03;;;27.08;59.47
21361;BME280;10839;43.206;23.550;2023-08-20T05:48:30;97455.53;;;28.43;55.90
21361;BME280;10839;43.206;23.550;2023-08-20T05:50:56;97453.03;;;30.42;50.16
21361;BME280;10839;43.206;23.550;2023-08-20T05:53:22;97464.97;;;32.60;45.27
21361;BME280;10839;43.206;23.550;2023-08-20T05:55:48;97467.59;;;33.83;41.99
21361;BME280;10839;43.206;23.550;2023-08-20T05:58:14;97462.91;;;35.40;38.94
21361;BME280;10839;43.206;23.550;2023-08-20T06:00:40;97468.09;;;35.86;38.02
21361;BME280;10839;43.206;23.550;2023-08-20T06:03:06;97481.25;;;36.85;36.23
21361;BME280;10839;43.206;23.550;2023-08-20T06:05:35;97479.94;;;37.22;35.70
21361;BME280;10839;43.206;23.550;2023-08-20T06:08:01;97487.97;;;38.14;34.08
21361;BME280;10839;43.206;23.550;2023-08-20T06:10:26;97487.56;;;38.62;33.13
21361;BME280;10839;43.206;23.550;2023-08-20T06:12:53;97481.25;;;38.69;32.26
21361;BME280;10839;43.206;23.550;2023-08-20T06:15:19;97471.31;;;37.43;33.46
21361;BME280;10839;43.206;23.550;2023-08-20T06:17:45;97484.06;;;37.41;33.25
21361;BME280;10839;43.206;23.550;2023-08-20T06:20:11;97475.84;;;37.48;32.75
21361;BME280;10839;43.206;23.550;2023-08-20T06:22:38;97468.56;;;37.47;32.59
21361;BME280;10839;43.206;23.550;2023-08-20T06:25:04;97479.19;;;37.53;32.88
21361;BME280;10839;43.206;23.550;2023-08-20T06:27:30;97482.81;;;37.38;33.05
21361;BME280;10839;43.206;23.550;2023-08-20T06:29:56;97480.75;;;37.82;32.60
21361;BME280;10839;43.206;23.550;2023-08-20T06:32:23;97476.72;;;37.08;33.53
21361;BME280;10839;43.206;23.550;2023-08-20T06:34:49;97483.50;;;37.07;33.57
21361;BME280;10839;43.206;23.550;2023-08-20T06:37:15;97491.16;;;37.22;33.29
21361;BME280;10839;43.206;23.550;2023-08-20T06:39:41;97497.31;;;36.85;33.81
21361;BME280;10839;43.206;23.550;2023-08-20T06:42:06;97503.00;;;36.88;33.91
21361;BME280;10839;43.206;23.550;2023-08-20T06:44:33;97504.34;;;37.93;33.00
21361;BME280;10839;43.206;23.550;2023-08-20T06:47:01;97504.81;;;38.45;32.22
21361;BME280;10839;43.206;23.550;2023-08-20T06:49:26;97514.09;;;38.30;32.49
21361;BME280;10839;43.206;23.550;2023-08-20T06:51:52;97509.22;;;37.96;32.87
21361;BME280;10839;43.206;23.550;2023-08-20T06:54:18;97512.50;;;38.29;32.85
21361;BME280;10839;43.206;23.550;2023-08-20T06:56:44;97516.47;;;38.97;30.92
21361;BME280;10839;43.206;23.550;2023-08-20T06:59:10;97505.94;;;37.63;32.28
21361;BME280;10839;43.206;23.550;2023-08-20T07:01:36;97511.06;;;37.73;32.99
21361;BME280;10839;43.206;23.550;2023-08-20T07:04:05;97516.63;;;38.35;31.77
21361;BME280;10839;43.206;23.550;2023-08-20T07:06:31;97518.78;;;38.57;31.46
21361;BME280;10839;43.206;23.550;2023-08-20T07:08:57;97517.06;;;38.87;30.43
21361;BME280;10839;43.206;23.550;2023-08-20T07:11:23;97518.91;;;38.99;30.54
21361;BME280;10839;43.206;23.550;2023-08-20T07:13:48;97521.94;;;38.90;30.81
21361;BME280;10839;43.206;23.550;2023-08-20T07:16:16;97524.47;;;38.95;30.64
21361;BME280;10839;43.206;23.550;2023-08-20T07:18:42;97526.28;;;39.03;30.59
21361;BME280;10839;43.206;23.550;2023-08-20T07:21:07;97523.44;;;38.84;30.92
21361;BME280;10839;43.206;23.550;2023-08-20T07:23:34;97529.25;;;38.10;31.74
21361;BME280;10839;43.206;23.550;2023-08-20T07:26:07;97524.28;;;38.19;31.68
21361;BME280;10839;43.206;23.550;2023-08-20T07:28:35;97539.41;;;38.46;31.92
21361;BME280;10839;43.206;23.550;2023-08-20T07:31:20;97535.72;;;38.95;31.14
21361;BME280;10839;43.206;23.550;2023-08-20T07:33:47;97531.91;;;39.03;31.10
21361;BME280;10839;43.206;23.550;2023-08-20T07:36:16;97530.13;;;39.33;31.01
21361;BME280;10839;43.206;23.550;2023-08-20T07:38:43;97539.41;;;38.80;31.79
21361;BME280;10839;43.206;23.550;2023-08-20T07:41:10;97523.09;;;38.20;32.68
21361;BME280;10839;43.206;23.550;2023-08-20T07:43:39;97533.78;;;38.61;31.75
21361;BME280;10839;43.206;23.550;2023-08-20T07:46:07;97527.69;;;39.13;31.68
21361;BME280;10839;43.206;23.550;2023-08-20T07:48:34;97512.91;;;39.58;30.24
21361;BME280;10839;43.206;23.550;2023-08-20T07:51:00;97524.94;;;39.35;30.18
21361;BME280;10839;43.206;23.550;2023-08-20T07:53:27;97524.34;;;39.26;30.51
21361;BME280;10839;43.206;23.550;2023-08-20T07:55:52;97522.09;;;38.97;30.99
21361;BME280;10839;43.206;23.550;2023-08-20T07:58:18;97527.56;;;39.67;30.39
21361;BME280;10839;43.206;23.550;2023-08-20T08:00:44;97521.34;;;39.38;30.09
21361;BME280;10839;43.206;23.550;2023-08-20T08:03:10;97520.59;;;39.41;29.99
21361;BME280;10839;43.206;23.550;2023-08-20T08:05:36;97522.25;;;39.23;30.27
21361;BME280;10839;43.206;23.550;2023-08-20T08:08:03;97520.00;;;38.75;30.94
21361;BME280;10839;43.206;23.550;2023-08-20T08:10:29;97514.09;;;38.99;30.41
21361;BME280;10839;43.206;23.550;2023-08-20T08:12:54;97514.66;;;39.66;29.92
21361;BME280;10839;43.206;23.550;2023-08-20T08:15:20;97514.59;;;39.85;28.90
21361;BME280;10839;43.206;23.550;2023-08-20T08:17:46;97503.59;;;39.76;29.43
21361;BME280;10839;43.206;23.550;2023-08-20T08:20:12;97511.28;;;40.02;29.29
21361;BME280;10839;43.206;23.550;2023-08-20T08:22:39;97513.47;;;40.12;28.97
21361;BME280;10839;43.206;23.550;2023-08-20T08:25:05;97519.16;;;40.38;28.34
21361;BME280;10839;43.206;23.550;2023-08-20T08:27:31;97518.56;;;40.51;27.91
21361;BME280;10839;43.206;23.550;2023-08-20T08:29:57;97507.56;;;40.20;28.08
21361;BME280;10839;43.206;23.550;2023-08-20T08:32:23;97507.22;;;40.48;27.97
21361;BME280;10839;43.206;23.550;2023-08-20T08:34:50;97513.50;;;40.38;27.63
21361;BME280;10839;43.206;23.550;2023-08-20T08:37:16;97510.22;;;40.10;28.25
21361;BME280;10839;43.206;23.550;2023-08-20T08:39:43;97501.63;;;40.51;27.73
21361;BME280;10839;43.206;23.550;2023-08-20T08:42:10;97503.63;;;39.80;28.29
21361;BME280;10839;43.206;23.550;2023-08-20T08:44:37;97500.13;;;40.09;28.32
21361;BME280;10839;43.206;23.550;2023-08-20T08:47:04;97498.06;;;39.83;28.51
21361;BME280;10839;43.206;23.550;2023-08-20T08:49:34;97504.34;;;39.96;28.44
21361;BME280;10839;43.206;23.550;2023-08-20T08:52:01;97508.78;;;39.97;28.61
21361;BME280;10839;43.206;23.550;2023-08-20T08:54:32;97507.31;;;39.19;29.57
21361;BME280;10839;43.206;23.550;2023-08-20T08:56:58;97506.97;;;39.63;29.11
21361;BME280;10839;43.206;23.550;2023-08-20T08:59:24;97498.81;;;39.38;29.01
21361;BME280;10839;43.206;23.550;2023-08-20T09:01:49;97507.56;;;38.95;29.43
21361;BME280;10839;43.206;23.550;2023-08-20T09:04:15;97502.53;;;39.23;29.66
21361;BME280;10839;43.206;23.550;2023-08-20T09:06:49;97500.47;;;39.01;29.61
21361;BME280;10839;43.206;23.550;2023-08-20T09:09:16;97504.06;;;38.64;29.88
21361;BME280;10839;43.206;23.550;2023-08-20T09:11:42;97497.81;;;38.89;29.79
21361;BME280;10839;43.206;23.550;2023-08-20T09:14:20;97497.78;;;38.70;29.83
21361;BME280;10839;43.206;23.550;2023-08-20T09:17:02;97496.75;;;38.78;29.50
21361;BME280;10839;43.206;23.550;2023-08-20T09:19:29;97488.72;;;37.21;31.52
21361;BME280;10839;43.206;23.550;2023-08-20T09:21:58;97503.97;;;37.79;31.00
21361;BME280;10839;43.206;23.550;2023-08-20T09:24:42;97501.59;;;38.27;31.35
21361;BME280;10839;43.206;23.550;2023-08-20T09:27:08;97498.25;;;38.22;30.96
21361;BME280;10839;43.206;23.550;2023-08-20T09:29:44;97491.63;;;37.68;31.52
21361;BME280;10839;43.206;23.550;2023-08-20T09:32:15;97491.28;;;37.85;31.12
21361;BME280;10839;43.206;23.550;2023-08-20T09:34:41;97489.66;;;38.84;29.88
21361;BME280;10839;43.206;23.550;2023-08-20T09:37:09;97487.94;;;38.45;30.58
21361;BME280;10839;43.206;23.550;2023-08-20T09:39:35;97489.75;;;38.53;30.85
21361;BME280;10839;43.206;23.550;2023-08-20T09:42:02;97469.34;;;38.94;30.15
21361;BME280;10839;43.206;23.550;2023-08-20T09:44:35;97471.03;;;38.45;31.21
21361;BME280;10839;43.206;23.550;2023-08-20T09:47:09;97478.13;;;36.75;32.13
21361;BME280;10839;43.206;23.550;2023-08-20T09:52:09;97475.34;;;36.75;31.48
21361;BME280;10839;43.206;23.550;2023-08-20T09:57:07;97474.38;;;35.83;31.63
21361;BME280;10839;43.206;23.550;2023-08-20T09:59:38;97478.34;;;36.42;31.57
21361;BME280;10839;43.206;23.550;2023-08-20T10:02:07;97473.78;;;36.77;31.20
21361;BME280;10839;43.206;23.550;2023-08-20T10:04:36;97477.53;;;35.69;32.86
21361;BME280;10839;43.206;23.550;2023-08-20T10:07:02;97480.94;;;36.23;32.13
21361;BME280;10839;43.206;23.550;2023-08-20T10:09:29;97470.84;;;36.22;32.43
21361;BME280;10839;43.206;23.550;2023-08-20T10:11:55;97473.91;;;35.57;32.93
21361;BME280;10839;43.206;23.550;2023-08-20T10:14:21;97466.88;;;36.35;31.76
21361;BME280;10839;43.206;23.550;2023-08-20T10:16:46;97458.97;;;36.13;31.94
21361;BME280;10839;43.206;23.550;2023-08-20T10:19:15;97455.22;;;36.21;31.85
21361;BME280;10839;43.206;23.550;2023-08-20T10:21:45;97458.03;;;36.73;31.98
21361;BME280;10839;43.206;23.550;2023-08-20T10:24:18;97462.56;;;35.77;33.24
21361;BME280;10839;43.206;23.550;2023-08-20T10:26:48;97468.88;;;34.85;34.13
21361;BME280;10839;43.206;23.550;2023-08-20T10:32:12;97464.91;;;35.63;32.14
21361;BME280;10839;43.206;23.550;2023-08-20T10:34:39;97462.38;;;35.26;32.81
21361;BME280;10839;43.206;23.550;2023-08-20T10:37:13;97453.56;;;34.21;34.45
21361;BME280;10839;43.206;23.550;2023-08-20T10:39:39;97449.09;;;34.90;33.52
21361;BME280;10839;43.206;23.550;2023-08-20T10:47:41;97452.50;;;34.75;32.56
21361;BME280;10839;43.206;23.550;2023-08-20T10:50:08;97444.31;;;34.29;32.73
21361;BME280;10839;43.206;23.550;2023-08-20T10:52:40;97448.03;;;34.41;32.95
21361;BME280;10839;43.206;23.550;2023-08-20T10:55:08;97455.44;;;35.56;31.46
21361;BME280;10839;43.206;23.550;2023-08-20T10:57:36;97439.34;;;36.25;30.91
21361;BME280;10839;43.206;23.550;2023-08-20T11:00:05;97445.31;;;36.63;31.56
21361;BME280;10839;43.206;23.550;2023-08-20T11:02:43;97438.53;;;36.13;31.20
21361;BME280;10839;43.206;23.550;2023-08-20T11:05:17;97433.13;;;35.35;31.93
21361;BME280;10839;43.206;23.550;2023-08-20T11:07:45;97429.78;;;34.15;32.87
21361;BME280;10839;43.206;23.550;2023-08-20T11:10:15;97429.31;;;34.54;32.38
21361;BME280;10839;43.206;23.550;2023-08-20T11:12:48;97423.84;;;34.99;31.78
21361;BME280;10839;43.206;23.550;2023-08-20T11:15:13;97423.03;;;34.16;32.80
21361;BME280;10839;43.206;23.550;2023-08-20T11:17:47;97420.16;;;34.65;32.36
21361;BME280;10839;43.206;23.550;2023-08-20T11:20:16;97424.91;;;35.18;31.99
21361;BME280;10839;43.206;23.550;2023-08-20T11:22:42;97411.06;;;34.56;32.73
21361;BME280;10839;43.206;23.550;2023-08-20T11:25:12;97411.56;;;34.70;32.89
21361;BME280;10839;43.206;23.550;2023-08-20T11:27:41;97413.81;;;35.10;32.58
21361;BME280;10839;43.206;23.550;2023-08-20T11:30:10;97402.59;;;34.44;32.13
21361;BME280;10839;43.206;23.550;2023-08-20T11:32:39;97417.09;;;35.12;31.62
21361;BME280;10839;43.206;23.550;2023-08-20T11:35:08;97409.16;;;35.14;31.78
21361;BME280;10839;43.206;23.550;2023-08-20T11:37:34;97408.25;;;35.34;32.26
21361;BME280;10839;43.206;23.550;2023-08-20T11:40:00;97406.44;;;35.50;32.31
21361;BME280;10839;43.206;23.550;2023-08-20T11:42:26;97406.97;;;34.33;33.20
21361;BME280;10839;43.206;23.550;2023-08-20T11:44:55;97403.38;;;34.65;32.83
21361;BME280;10839;43.206;23.550;2023-08-20T11:47:21;97399.06;;;34.35;30.42
21361;BME280;10839;43.206;23.550;2023-08-20T11:49:47;97404.31;;;33.58;30.02
21361;BME280;10839;43.206;23.550;2023-08-20T11:52:13;97407.69;;;32.97;30.78
21361;BME280;10839;43.206;23.550;2023-08-20T11:54:38;97397.06;;;33.28;30.85
21361;BME280;10839;43.206;23.550;2023-08-20T11:57:06;97390.53;;;34.11;30.64
21361;BME280;10839;43.206;23.550;2023-08-20T11:59:33;97381.09;;;34.90;29.71
21361;BME280;10839;43.206;23.550;2023-08-20T12:02:00;97385.97;;;34.48;29.65
21361;BME280;10839;43.206;23.550;2023-08-20T12:04:29;97375.88;;;34.14;30.78
21361;BME280;10839;43.206;23.550;2023-08-20T12:07:10;97384.47;;;34.50;30.65
21361;BME280;10839;43.206;23.550;2023-08-20T12:09:39;97389.03;;;33.18;32.11
21361;BME280;10839;43.206;23.550;2023-08-20T12:12:06;97384.69;;;32.83;32.69
21361;BME280;10839;43.206;23.550;2023-08-20T12:14:33;97384.38;;;32.93;32.54
21361;BME280;10839;43.206;23.550;2023-08-20T12:16:58;97382.09;;;32.78;32.89
21361;BME280;10839;43.206;23.550;2023-08-20T12:19:25;97386.50;;;32.96;32.56
21361;BME280;10839;43.206;23.550;2023-08-20T12:21:51;97380.69;;;33.18;32.51
21361;BME280;10839;43.206;23.550;2023-08-20T12:24:17;97375.22;;;33.88;31.77
21361;BME280;10839;43.206;23.550;2023-08-20T12:26:45;97372.56;;;33.42;32.02
21361;BME280;10839;43.206;23.550;2023-08-20T12:29:10;97369.69;;;32.50;33.37
21361;BME280;10839;43.206;23.550;2023-08-20T12:31:38;97381.25;;;32.94;33.12
21361;BME280;10839;43.206;23.550;2023-08-20T12:34:05;97368.09;;;33.03;32.46
21361;BME280;10839;43.206;23.550;2023-08-20T12:36:31;97366.44;;;33.48;32.81
21361;BME280;10839;43.206;23.550;2023-08-20T12:38:57;97357.28;;;33.89;32.17
21361;BME280;10839;43.206;23.550;2023-08-20T12:41:23;97355.66;;;33.88;31.69
21361;BME280;10839;43.206;23.550;2023-08-20T12:43:49;97351.56;;;33.65;32.04
21361;BME280;10839;43.206;23.550;2023-08-20T12:46:14;97352.91;;;34.09;30.82
21361;BME280;10839;43.206;23.550;2023-08-20T12:48:40;97350.19;;;34.00;31.23
21361;BME280;10839;43.206;23.550;2023-08-20T12:51:06;97350.13;;;34.09;30.86
21361;BME280;10839;43.206;23.550;2023-08-20T12:53:33;97351.72;;;33.89;30.93
21361;BME280;10839;43.206;23.550;2023-08-20T12:55:58;97356.28;;;33.44;31.09
21361;BME280;10839;43.206;23.550;2023-08-20T12:58:24;97342.13;;;33.49;30.99
21361;BME280;10839;43.206;23.550;2023-08-20T13:00:50;97335.09;;;33.72;30.71
21361;BME280;10839;43.206;23.550;2023-08-20T13:03:18;97347.59;;;33.45;30.58
21361;BME280;10839;43.206;23.550;2023-08-20T13:05:44;97351.34;;;33.12;30.68
21361;BME280;10839;43.206;23.550;2023-08-20T13:08:10;97345.78;;;33.70;30.10